createdAt,value
2019-02-22T00:01:56.713Z,70.61
2019-02-22T00:04:27.380Z,70.43
2019-02-22T00:07:02.133Z,70.44
2019-02-22T00:09:35.572Z,70.44
2019-02-22T00:12:05.782Z,70.69
2019-02-22T00:14:43.569Z,70.82
2019-02-22T00:17:16.617Z,71.21
2019-02-22T00:19:48.546Z,71.30
2019-02-22T00:22:19.062Z,71.52
2019-02-22T00:24:56.960Z,71.55
2019-02-22T00:27:27.646Z,72.03
2019-02-22T00:29:59.426Z,72.23
2019-02-22T00:32:28.858Z,71.95
2019-02-22T00:35:12.172Z,71.99
2019-02-22T00:37:42.864Z,72.09
2019-02-22T00:40:13.908Z,71.96
2019-02-22T00:42:46.402Z,71.95
2019-02-22T00:45:17.102Z,71.70
2019-02-22T00:47:56.727Z,71.38
2019-02-22T00:50:29.253Z,71.46
2019-02-22T00:53:05.790Z,71.21
2019-02-22T00:55:38.136Z,71.11
2019-02-22T00:58:15.902Z,70.92
2019-02-22T01:00:56.290Z,71.40
2019-02-22T01:03:28.542Z,71.49
2019-02-22T01:05:57.999Z,72.00
2019-02-22T01:08:27.924Z,72.01
2019-02-22T01:11:00.195Z,72.29
2019-02-22T01:13:29.657Z,72.32
2019-02-22T01:15:59.701Z,72.30
2019-02-22T01:18:29.032Z,72.08
2019-02-22T01:20:57.934Z,71.72
2019-02-22T01:23:27.762Z,71.87
2019-02-22T01:26:00.670Z,71.71
2019-02-22T01:28:31.219Z,71.64
2019-02-22T01:31:02.219Z,71.28
2019-02-22T01:33:32.740Z,71.34
2019-02-22T01:36:04.686Z,71.40
2019-02-22T01:38:34.096Z,71.58
2019-02-22T01:41:05.725Z,71.58
2019-02-22T01:43:34.548Z,71.69
2019-02-22T01:46:21.558Z,71.42
2019-02-22T01:48:51.487Z,71.08
2019-02-22T01:51:22.388Z,71.04
2019-02-22T01:53:53.979Z,71.17
2019-02-22T01:56:25.309Z,71.11
2019-02-22T01:59:02.985Z,70.94
2019-02-22T02:01:32.318Z,70.71
2019-02-22T02:04:02.569Z,70.49
2019-02-22T02:06:33.751Z,70.54
2019-02-22T02:09:03.319Z,70.71
2019-02-22T02:11:32.490Z,70.71
2019-02-22T02:14:02.661Z,70.84
2019-02-22T02:16:33.182Z,71.09
2019-02-22T02:19:02.790Z,70.94
2019-02-22T02:21:33.642Z,70.90
2019-02-22T02:24:03.074Z,71.47
2019-02-22T02:26:32.944Z,71.53
2019-02-22T02:29:07.400Z,71.73
2019-02-22T02:31:41.304Z,71.80
2019-02-22T02:34:12.875Z,71.82
2019-02-22T02:39:29.658Z,71.79
2019-02-22T02:41:58.427Z,71.52
2019-02-22T02:44:28.221Z,71.52
2019-02-22T02:46:59.219Z,71.41
2019-02-22T02:49:28.359Z,71.26
2019-02-22T02:52:03.608Z,71.13
2019-02-22T02:54:45.788Z,71.00
2019-02-22T02:57:17.157Z,71.14
2019-02-22T02:59:55.590Z,71.49
2019-02-22T03:02:32.197Z,71.59
2019-02-22T03:05:04.439Z,71.51
2019-02-22T03:07:43.821Z,71.34
2019-02-22T03:10:13.501Z,71.31
2019-02-22T03:12:44.332Z,71.13
2019-02-22T03:15:17.719Z,71.73
2019-02-22T03:17:46.307Z,71.75
2019-02-22T03:20:15.626Z,71.91
2019-02-22T03:22:45.613Z,71.92
2019-02-22T03:25:15.540Z,71.46
2019-02-22T03:27:46.281Z,71.70
2019-02-22T03:30:19.448Z,71.48
2019-02-22T03:32:49.472Z,71.08
2019-02-22T03:35:22.979Z,70.93
2019-02-22T03:37:52.893Z,70.95
2019-02-22T03:40:23.820Z,71.14
2019-02-22T03:42:58.757Z,71.12
2019-02-22T03:45:27.871Z,71.25
2019-02-22T03:47:56.537Z,71.08
2019-02-22T03:50:26.742Z,71.28
2019-02-22T03:53:14.311Z,71.37
2019-02-22T03:55:43.064Z,71.41
2019-02-22T03:58:12.418Z,71.38
2019-02-22T04:00:41.810Z,71.29
2019-02-22T04:03:12.863Z,70.91
2019-02-22T04:05:42.893Z,70.98
2019-02-22T04:08:12.401Z,71.30
2019-02-22T04:10:45.851Z,71.31
2019-02-22T04:13:15.002Z,71.12
2019-02-22T04:15:45.952Z,71.03
2019-02-22T04:18:15.081Z,70.79
2019-02-22T04:20:46.206Z,71.21
2019-02-22T04:23:19.685Z,71.22
2019-02-22T04:25:56.551Z,71.40
2019-02-22T04:28:26.789Z,71.53
2019-02-22T04:30:55.929Z,71.27
2019-02-22T04:33:26.222Z,71.64
2019-02-22T04:35:59.868Z,71.43
2019-02-22T04:38:29.359Z,71.31
2019-02-22T04:41:06.146Z,71.18
2019-02-22T04:43:36.232Z,71.50
2019-02-22T04:46:05.295Z,71.14
2019-02-22T04:48:37.945Z,71.03
2019-02-22T04:51:09.329Z,71.06
2019-02-22T04:53:40.281Z,71.61
2019-02-22T04:56:09.443Z,71.43
2019-02-22T04:58:41.841Z,71.40
2019-02-22T05:01:12.387Z,71.52
2019-02-22T05:06:33.295Z,71.23
2019-02-22T05:09:04.207Z,71.16
2019-02-22T05:11:33.622Z,71.36
2019-02-22T05:14:04.847Z,71.37
2019-02-22T05:16:33.589Z,71.75
2019-02-22T05:19:02.779Z,71.73
2019-02-22T05:21:33.412Z,71.31
2019-02-22T05:24:06.770Z,71.11
2019-02-22T05:26:39.923Z,71.12
2019-02-22T05:29:11.322Z,70.99
2019-02-22T05:31:46.112Z,70.71
2019-02-22T05:34:19.602Z,70.83
2019-02-22T05:36:48.522Z,70.91
2019-02-22T05:39:20.562Z,70.54
2019-02-22T05:41:52.781Z,70.81
2019-02-22T05:44:22.694Z,70.84
2019-02-22T05:47:02.670Z,70.63
2019-02-22T05:49:33.798Z,70.82
2019-02-22T05:52:10.445Z,71.11
2019-02-22T05:54:47.909Z,70.78
2019-02-22T05:57:18.020Z,70.91
2019-02-22T05:59:58.348Z,70.91
2019-02-22T06:02:28.963Z,70.90
2019-02-22T06:05:12.165Z,70.51
2019-02-22T06:08:08.840Z,70.75
2019-02-22T06:12:55.877Z,70.86
2019-02-22T06:15:42.280Z,70.71
2019-02-22T06:21:40.880Z,70.35
2019-02-22T06:24:03.719Z,70.00
2019-02-22T06:26:38.238Z,69.50
2019-02-22T06:29:09.940Z,70.15
2019-02-22T06:44:24.240Z,70.23
2019-02-22T06:51:19.326Z,70.83
2019-02-22T07:02:31.287Z,70.21
2019-02-22T07:06:02.065Z,70.55
2019-02-22T07:12:05.311Z,70.07
2019-02-22T07:20:40.749Z,70.20
2019-02-22T07:32:39.125Z,70.89
2019-02-22T07:35:14.404Z,70.60
2019-02-22T07:37:59.523Z,70.72
2019-02-22T07:43:28.924Z,70.17
2019-02-22T08:04:13.303Z,70.01
2019-02-22T08:06:55.921Z,69.69
2019-02-22T08:09:28.756Z,69.23
2019-02-22T08:11:59.183Z,69.06
2019-02-22T08:15:13.809Z,68.51
2019-02-22T08:24:21.741Z,67.68
2019-02-22T08:27:11.123Z,67.66
2019-02-22T08:30:13.452Z,68.07
2019-02-22T08:35:58.006Z,69.14
2019-02-22T08:41:49.428Z,68.62
2019-02-22T08:45:03.176Z,69.29
2019-02-22T08:48:19.770Z,69.13
2019-02-22T08:50:43.309Z,68.75
2019-02-22T08:53:37.135Z,69.27
2019-02-22T08:59:19.299Z,69.56
2019-02-22T09:06:04.711Z,69.06
2019-02-22T09:12:26.446Z,69.05
2019-02-22T09:14:58.782Z,68.74
2019-02-22T09:21:30.765Z,68.85
2019-02-22T09:24:15.798Z,68.64
2019-02-22T09:36:20.852Z,66.69
2019-02-22T09:38:55.368Z,65.65
2019-02-22T09:41:38.486Z,65.11
2019-02-22T09:47:35.523Z,63.69
2019-02-22T09:56:30.948Z,62.17
2019-02-22T09:59:15.952Z,61.63
2019-02-22T10:02:01.338Z,62.67
2019-02-22T10:04:55.120Z,63.05
2019-02-22T10:10:36.507Z,61.20
2019-02-22T10:19:30.712Z,62.48
2019-02-22T10:31:18.181Z,58.93
2019-02-22T10:42:53.230Z,56.91
2019-02-22T10:45:46.341Z,54.75
2019-02-22T10:51:53.035Z,56.61
2019-02-22T10:55:06.391Z,54.35
2019-02-22T11:00:34.946Z,55.80
2019-02-22T11:03:15.901Z,53.03
2019-02-22T11:05:51.608Z,54.51
2019-02-22T11:08:37.585Z,54.24
2019-02-22T11:11:31.329Z,49.54
2019-02-22T11:14:01.669Z,47.10
2019-02-22T11:16:42.281Z,46.31
2019-02-22T11:19:17.898Z,45.93
2019-02-22T11:22:37.260Z,43.27
2019-02-22T11:27:59.961Z,38.89
2019-02-22T12:52:55.767Z,39.70
2019-02-22T12:58:13.652Z,39.40
2019-02-22T13:01:13.085Z,39.19
2019-02-22T13:06:50.170Z,38.53
2019-02-22T13:09:45.549Z,37.28
2019-02-22T13:12:46.162Z,37.31
2019-02-22T13:18:16.797Z,39.38
2019-02-22T13:34:03.444Z,41.38
2019-02-22T13:45:26.908Z,42.03
2019-02-22T13:51:41.646Z,42.50
2019-02-22T13:54:23.850Z,42.92
2019-02-22T14:00:31.493Z,43.46
2019-02-22T14:03:01.534Z,43.65
2019-02-22T14:05:31.056Z,42.54
2019-02-22T14:08:00.872Z,42.48
2019-02-22T14:10:32.130Z,41.80
2019-02-22T14:13:05.438Z,41.82
2019-02-22T14:16:12.707Z,41.68
2019-02-22T14:21:42.259Z,42.17
2019-02-22T14:24:19.094Z,43.00
2019-02-22T14:26:48.110Z,43.35
2019-02-22T14:35:36.196Z,44.42
2019-02-22T14:38:17.817Z,44.11
2019-02-22T14:41:06.808Z,44.31
2019-02-22T14:46:42.968Z,45.30
2019-02-22T14:49:18.136Z,45.22
2019-02-22T14:52:01.257Z,45.38
2019-02-22T14:55:17.699Z,45.31
2019-02-22T15:13:33.579Z,43.49
2019-02-22T15:16:38.868Z,43.12
2019-02-22T15:22:26.763Z,42.95
2019-02-22T15:25:04.649Z,43.18
2019-02-22T15:27:45.260Z,43.45
2019-02-22T15:30:32.697Z,44.21
2019-02-22T15:33:21.635Z,44.46
2019-02-22T15:36:16.327Z,44.15
2019-02-22T15:41:42.762Z,44.85
2019-02-22T15:53:46.585Z,44.99
2019-02-22T15:59:25.905Z,44.96
2019-02-22T16:02:36.021Z,44.96
2019-02-22T16:13:55.463Z,44.13
2019-02-22T16:16:25.434Z,44.28
2019-02-22T16:19:15.350Z,44.31
2019-02-22T16:21:46.664Z,44.02
2019-02-22T16:24:27.695Z,44.12
2019-02-22T16:27:05.170Z,44.61
2019-02-22T16:29:34.030Z,45.18
2019-02-22T16:32:12.855Z,45.20
2019-02-22T16:40:54.396Z,46.69
2019-02-22T16:59:00.436Z,47.76
2019-02-22T17:04:55.076Z,48.65
2019-02-22T17:07:26.074Z,48.96
2019-02-22T20:14:10.131Z,59.78
2019-02-22T20:17:00.696Z,59.54
2019-02-22T20:19:35.108Z,59.54
2019-02-22T20:22:40.639Z,60.71
2019-02-22T20:28:31.197Z,61.99
2019-02-22T20:31:20.277Z,62.32
2019-02-22T20:34:40.540Z,62.09
2019-02-22T20:40:44.435Z,62.13
2019-02-22T20:50:50.515Z,62.50
2019-02-22T21:02:55.975Z,62.03
2019-02-22T21:05:52.164Z,62.19
2019-02-22T21:08:32.022Z,61.79
2019-02-22T21:11:12.255Z,62.03
2019-02-22T21:19:07.483Z,62.00
2019-02-22T21:28:22.660Z,62.05
2019-02-22T21:36:46.339Z,62.34
2019-02-22T21:39:27.171Z,62.57
2019-02-22T21:49:04.329Z,62.76
2019-02-22T21:51:43.430Z,63.21
2019-02-22T21:54:15.324Z,63.02
2019-02-22T21:56:44.637Z,62.80
2019-02-22T21:59:17.781Z,62.62
2019-02-22T22:11:05.459Z,63.11
2019-02-22T22:13:38.542Z,62.92
2019-02-22T22:20:16.292Z,63.31
2019-02-22T22:22:29.952Z,63.23
2019-02-22T22:28:00.074Z,63.38
2019-02-22T22:33:34.279Z,64.03
2019-02-22T22:36:30.555Z,64.26
2019-02-22T22:42:17.132Z,64.22
2019-02-22T22:44:46.426Z,64.44
2019-02-22T22:47:14.870Z,64.59
2019-02-22T22:49:44.803Z,64.55
2019-02-22T22:52:13.166Z,64.57
2019-02-22T22:54:46.831Z,64.48
2019-02-22T22:57:15.074Z,64.27
2019-02-22T22:59:44.382Z,64.23
2019-02-22T23:02:13.876Z,64.10
2019-02-22T23:04:43.217Z,64.17
2019-02-22T23:07:20.759Z,64.41
2019-02-22T23:09:54.041Z,64.72
2019-02-22T23:12:22.340Z,64.84
2019-02-22T23:14:53.960Z,64.84
2019-02-22T23:17:22.378Z,64.63
2019-02-22T23:19:50.777Z,64.29
2019-02-22T23:22:19.197Z,64.41
2019-02-22T23:24:50.820Z,64.41
2019-02-22T23:27:19.147Z,64.17
2019-02-22T23:29:47.547Z,64.13
2019-02-22T23:32:16.033Z,64.31
2019-02-22T23:34:47.475Z,64.14
2019-02-22T23:37:20.241Z,63.99
2019-02-22T23:39:48.769Z,63.85
2019-02-22T23:42:19.999Z,63.77
2019-02-22T23:44:49.947Z,63.74
2019-02-22T23:47:18.319Z,63.67
2019-02-22T23:49:54.120Z,63.61
2019-02-22T23:52:25.255Z,63.65
2019-02-22T23:54:53.674Z,63.65
2019-02-22T23:57:22.180Z,63.65
